sensor_id;sensor_type;location;lat;lon;timestamp;P1;durP1;ratioP1;P2;durP2;ratioP2
7977;SDS011;4034;48.004;10.902;2023-01-19T00:01:55;6.63;;;5.93;;
7977;SDS011;4034;48.004;10.902;2023-01-19T00:04:21;6.70;;;5.57;;
7977;SDS011;4034;48.004;10.902;2023-01-19T00:06:47;10.30;;;8.30;;
7977;SDS011;4034;48.004;10.902;2023-01-19T00:09:13;10.17;;;8.97;;
7977;SDS011;4034;48.004;10.902;2023-01-19T00:11:39;12.33;;;10.17;;
7977;SDS011;4034;48.004;10.902;2023-01-19T00:14:05;10.17;;;8.67;;
7977;SDS011;4034;48.004;10.902;2023-01-19T00:16:31;9.83;;;8.73;;
7977;SDS011;4034;48.004;10.902;2023-01-19T00:18:57;9.83;;;7.83;;
7977;SDS011;4034;48.004;10.902;2023-01-19T00:21:23;13.83;;;10.53;;
7977;SDS011;4034;48.004;10.902;2023-01-19T00:23:49;11.40;;;8.80;;
7977;SDS011;4034;48.004;10.902;2023-01-19T00:26:16;10.73;;;9.70;;
7977;SDS011;4034;48.004;10.902;2023-01-19T00:28:43;10.90;;;9.80;;
7977;SDS011;4034;48.004;10.902;2023-01-19T00:31:09;12.57;;;9.37;;
7977;SDS011;4034;48.004;10.902;2023-01-19T00:33:35;12.63;;;9.70;;
7977;SDS011;4034;48.004;10.902;2023-01-19T00:36:01;11.87;;;9.90;;
7977;SDS011;4034;48.004;10.902;2023-01-19T00:38:27;11.50;;;9.57;;
7977;SDS011;4034;48.004;10.902;2023-01-19T00:40:53;10.50;;;9.37;;
7977;SDS011;4034;48.004;10.902;2023-01-19T00:43:19;11.70;;;9.80;;
7977;SDS011;4034;48.004;10.902;2023-01-19T00:45:45;13.73;;;10.83;;
7977;SDS011;4034;48.004;10.902;2023-01-19T00:48:11;10.63;;;9.53;;
7977;SDS011;4034;48.004;10.902;2023-01-19T00:50:37;11.73;;;10.57;;
7977;SDS011;4034;48.004;10.902;2023-01-19T00:53:03;14.30;;;10.43;;
7977;SDS011;4034;48.004;10.902;2023-01-19T00:55:30;11.47;;;9.77;;
7977;SDS011;4034;48.004;10.902;2023-01-19T00:57:57;12.33;;;10.00;;
7977;SDS011;4034;48.004;10.902;2023-01-19T01:00:23;11.37;;;9.37;;
7977;SDS011;4034;48.004;10.902;2023-01-19T01:02:50;10.13;;;8.37;;
7977;SDS011;4034;48.004;10.902;2023-01-19T01:05:17;12.97;;;9.33;;
7977;SDS011;4034;48.004;10.902;2023-01-19T01:07:43;10.83;;;9.03;;
7977;SDS011;4034;48.004;10.902;2023-01-19T01:10:10;12.33;;;10.07;;
7977;SDS011;4034;48.004;10.902;2023-01-19T01:12:36;9.67;;;8.07;;
7977;SDS011;4034;48.004;10.902;2023-01-19T01:15:03;15.20;;;10.63;;
7977;SDS011;4034;48.004;10.902;2023-01-19T01:17:29;10.13;;;9.13;;
7977;SDS011;4034;48.004;10.902;2023-01-19T01:19:55;18.27;;;8.57;;
7977;SDS011;4034;48.004;10.902;2023-01-19T01:22:21;9.73;;;8.77;;
7977;SDS011;4034;48.004;10.902;2023-01-19T01:24:47;9.77;;;8.63;;
7977;SDS011;4034;48.004;10.902;2023-01-19T01:27:13;9.80;;;8.80;;
7977;SDS011;4034;48.004;10.902;2023-01-19T01:29:39;10.33;;;8.03;;
7977;SDS011;4034;48.004;10.902;2023-01-19T01:32:10;12.03;;;6.87;;
7977;SDS011;4034;48.004;10.902;2023-01-19T01:34:36;8.30;;;7.50;;
7977;SDS011;4034;48.004;10.902;2023-01-19T01:37:02;10.93;;;7.97;;
7977;SDS011;4034;48.004;10.902;2023-01-19T01:39:28;10.13;;;7.97;;
7977;SDS011;4034;48.004;10.902;2023-01-19T01:41:54;9.47;;;8.00;;
7977;SDS011;4034;48.004;10.902;2023-01-19T01:47:13;14.63;;;8.77;;
7977;SDS011;4034;48.004;10.902;2023-01-19T01:49:39;8.70;;;7.80;;
7977;SDS011;4034;48.004;10.902;2023-01-19T01:52:05;18.47;;;9.43;;
7977;SDS011;4034;48.004;10.902;2023-01-19T01:54:31;12.33;;;8.97;;
7977;SDS011;4034;48.004;10.902;2023-01-19T01:56:59;13.03;;;10.10;;
7977;SDS011;4034;48.004;10.902;2023-01-19T01:59:27;11.30;;;10.20;;
7977;SDS011;4034;48.004;10.902;2023-01-19T02:01:59;11.73;;;10.07;;
7977;SDS011;4034;48.004;10.902;2023-01-19T02:04:46;10.90;;;9.77;;
7977;SDS011;4034;48.004;10.902;2023-01-19T02:07:15;13.13;;;10.70;;
7977;SDS011;4034;48.004;10.902;2023-01-19T02:10:03;14.20;;;11.10;;
7977;SDS011;4034;48.004;10.902;2023-01-19T02:12:48;11.83;;;10.67;;
7977;SDS011;4034;48.004;10.902;2023-01-19T02:15:33;13.40;;;11.67;;
7977;SDS011;4034;48.004;10.902;2023-01-19T02:17:59;14.53;;;12.07;;
7977;SDS011;4034;48.004;10.902;2023-01-19T02:20:25;13.30;;;11.63;;
7977;SDS011;4034;48.004;10.902;2023-01-19T02:22:52;8.87;;;8.07;;
7977;SDS011;4034;48.004;10.902;2023-01-19T02:25:20;12.43;;;11.17;;
7977;SDS011;4034;48.004;10.902;2023-01-19T02:27:46;12.07;;;9.30;;
7977;SDS011;4034;48.004;10.902;2023-01-19T02:30:12;14.83;;;11.10;;
7977;SDS011;4034;48.004;10.902;2023-01-19T02:32:40;8.67;;;7.80;;
7977;SDS011;4034;48.004;10.902;2023-01-19T02:35:06;16.03;;;11.87;;
7977;SDS011;4034;48.004;10.902;2023-01-19T02:37:33;11.03;;;8.77;;
7977;SDS011;4034;48.004;10.902;2023-01-19T02:40:02;13.13;;;11.10;;
7977;SDS011;4034;48.004;10.902;2023-01-19T02:42:31;14.87;;;12.33;;
7977;SDS011;4034;48.004;10.902;2023-01-19T02:44:59;6.17;;;5.67;;
7977;SDS011;4034;48.004;10.902;2023-01-19T02:47:35;16.67;;;13.10;;
7977;SDS011;4034;48.004;10.902;2023-01-19T02:50:02;17.30;;;12.27;;
7977;SDS011;4034;48.004;10.902;2023-01-19T02:52:28;14.17;;;12.03;;
7977;SDS011;4034;48.004;10.902;2023-01-19T03:05:16;13.53;;;11.70;;
7977;SDS011;4034;48.004;10.902;2023-01-19T03:12:44;15.70;;;12.97;;
7977;SDS011;4034;48.004;10.902;2023-01-19T03:15:14;14.67;;;11.97;;
7977;SDS011;4034;48.004;10.902;2023-01-19T03:17:42;17.70;;;13.87;;
7977;SDS011;4034;48.004;10.902;2023-01-19T03:20:09;17.33;;;12.97;;
7977;SDS011;4034;48.004;10.902;2023-01-19T03:22:37;20.13;;;13.60;;
7977;SDS011;4034;48.004;10.902;2023-01-19T03:25:04;13.87;;;11.90;;
7977;SDS011;4034;48.004;10.902;2023-01-19T03:27:31;13.00;;;11.57;;
7977;SDS011;4034;48.004;10.902;2023-01-19T03:30:05;13.23;;;11.90;;
7977;SDS011;4034;48.004;10.902;2023-01-19T03:32:34;12.37;;;10.47;;
7977;SDS011;4034;48.004;10.902;2023-01-19T03:35:02;13.93;;;11.67;;
7977;SDS011;4034;48.004;10.902;2023-01-19T03:37:29;16.43;;;12.47;;
7977;SDS011;4034;48.004;10.902;2023-01-19T03:39:56;14.57;;;9.30;;
7977;SDS011;4034;48.004;10.902;2023-01-19T03:42:22;11.73;;;10.47;;
7977;SDS011;4034;48.004;10.902;2023-01-19T03:44:49;12.17;;;8.67;;
7977;SDS011;4034;48.004;10.902;2023-01-19T03:47:17;13.17;;;11.03;;
7977;SDS011;4034;48.004;10.902;2023-01-19T03:49:44;17.77;;;12.73;;
7977;SDS011;4034;48.004;10.902;2023-01-19T03:52:11;13.70;;;11.83;;
7977;SDS011;4034;48.004;10.902;2023-01-19T03:54:38;18.53;;;12.77;;
7977;SDS011;4034;48.004;10.902;2023-01-19T03:57:04;17.30;;;11.17;;
7977;SDS011;4034;48.004;10.902;2023-01-19T03:59:31;16.50;;;12.17;;
7977;SDS011;4034;48.004;10.902;2023-01-19T04:01:57;17.17;;;11.27;;
7977;SDS011;4034;48.004;10.902;2023-01-19T04:04:23;16.83;;;12.37;;
7977;SDS011;4034;48.004;10.902;2023-01-19T04:06:49;11.13;;;8.47;;
7977;SDS011;4034;48.004;10.902;2023-01-19T04:09:15;9.10;;;8.10;;
7977;SDS011;4034;48.004;10.902;2023-01-19T04:11:41;16.37;;;12.07;;
7977;SDS011;4034;48.004;10.902;2023-01-19T04:14:07;12.37;;;10.80;;
7977;SDS011;4034;48.004;10.902;2023-01-19T04:16:33;14.67;;;11.73;;
7977;SDS011;4034;48.004;10.902;2023-01-19T04:18:59;8.87;;;7.93;;
7977;SDS011;4034;48.004;10.902;2023-01-19T04:21:25;9.67;;;8.67;;
7977;SDS011;4034;48.004;10.902;2023-01-19T04:23:51;12.97;;;9.73;;
7977;SDS011;4034;48.004;10.902;2023-01-19T04:26:18;13.50;;;10.43;;
7977;SDS011;4034;48.004;10.902;2023-01-19T04:28:44;14.20;;;12.27;;
7977;SDS011;4034;48.004;10.902;2023-01-19T04:31:10;12.97;;;9.43;;
7977;SDS011;4034;48.004;10.902;2023-01-19T04:33:36;15.33;;;12.70;;
7977;SDS011;4034;48.004;10.902;2023-01-19T04:36:02;12.10;;;9.43;;
7977;SDS011;4034;48.004;10.902;2023-01-19T04:38:28;15.50;;;11.30;;
7977;SDS011;4034;48.004;10.902;2023-01-19T04:40:54;9.07;;;7.10;;
7977;SDS011;4034;48.004;10.902;2023-01-19T04:43:21;16.83;;;11.73;;
7977;SDS011;4034;48.004;10.902;2023-01-19T04:45:47;14.60;;;11.10;;
7977;SDS011;4034;48.004;10.902;2023-01-19T04:48:14;13.30;;;9.63;;
7977;SDS011;4034;48.004;10.902;2023-01-19T04:50:40;12.13;;;10.70;;
7977;SDS011;4034;48.004;10.902;2023-01-19T04:53:06;13.13;;;8.17;;
7977;SDS011;4034;48.004;10.902;2023-01-19T04:55:32;14.30;;;11.10;;
7977;SDS011;4034;48.004;10.902;2023-01-19T04:57:58;12.40;;;10.83;;
7977;SDS011;4034;48.004;10.902;2023-01-19T05:00:25;14.13;;;12.30;;
7977;SDS011;4034;48.004;10.902;2023-01-19T05:02:51;17.23;;;13.07;;
7977;SDS011;4034;48.004;10.902;2023-01-19T05:05:17;13.53;;;11.07;;
7977;SDS011;4034;48.004;10.902;2023-01-19T05:07:43;15.20;;;11.30;;
7977;SDS011;4034;48.004;10.902;2023-01-19T05:10:10;13.47;;;10.63;;
7977;SDS011;4034;48.004;10.902;2023-01-19T05:12:36;12.20;;;10.67;;
7977;SDS011;4034;48.004;10.902;2023-01-19T05:15:02;12.47;;;9.70;;
7977;SDS011;4034;48.004;10.902;2023-01-19T05:17:28;15.30;;;10.20;;
7977;SDS011;4034;48.004;10.902;2023-01-19T05:19:54;14.80;;;10.90;;
7977;SDS011;4034;48.004;10.902;2023-01-19T05:22:20;18.27;;;12.40;;
7977;SDS011;4034;48.004;10.902;2023-01-19T05:24:46;16.60;;;9.67;;
7977;SDS011;4034;48.004;10.902;2023-01-19T05:27:12;15.93;;;11.57;;
7977;SDS011;4034;48.004;10.902;2023-01-19T05:29:38;13.30;;;11.17;;
7977;SDS011;4034;48.004;10.902;2023-01-19T05:32:04;13.23;;;10.43;;
7977;SDS011;4034;48.004;10.902;2023-01-19T05:34:30;17.40;;;11.10;;
7977;SDS011;4034;48.004;10.902;2023-01-19T05:36:56;18.07;;;11.67;;
7977;SDS011;4034;48.004;10.902;2023-01-19T05:39:22;13.37;;;10.60;;
7977;SDS011;4034;48.004;10.902;2023-01-19T05:41:50;18.43;;;11.30;;
7977;SDS011;4034;48.004;10.902;2023-01-19T05:44:15;15.30;;;11.10;;
7977;SDS011;4034;48.004;10.902;2023-01-19T05:46:41;14.60;;;11.13;;
7977;SDS011;4034;48.004;10.902;2023-01-19T05:49:07;13.00;;;11.47;;
7977;SDS011;4034;48.004;10.902;2023-01-19T05:51:34;13.73;;;10.30;;
7977;SDS011;4034;48.004;10.902;2023-01-19T05:54:05;13.80;;;10.43;;
7977;SDS011;4034;48.004;10.902;2023-01-19T05:56:32;13.63;;;9.90;;
7977;SDS011;4034;48.004;10.902;2023-01-19T05:58:59;11.13;;;9.93;;
7977;SDS011;4034;48.004;10.902;2023-01-19T06:01:25;14.23;;;11.53;;
7977;SDS011;4034;48.004;10.902;2023-01-19T06:03:52;13.87;;;11.03;;
7977;SDS011;4034;48.004;10.902;2023-01-19T06:06:17;14.10;;;11.20;;
7977;SDS011;4034;48.004;10.902;2023-01-19T06:08:44;14.10;;;10.83;;
7977;SDS011;4034;48.004;10.902;2023-01-19T06:11:10;13.00;;;11.10;;
7977;SDS011;4034;48.004;10.902;2023-01-19T06:13:36;14.90;;;10.90;;
7977;SDS011;4034;48.004;10.902;2023-01-19T06:16:04;16.53;;;11.47;;
7977;SDS011;4034;48.004;10.902;2023-01-19T06:18:30;17.23;;;11.70;;
7977;SDS011;4034;48.004;10.902;2023-01-19T06:20:56;16.87;;;12.13;;
7977;SDS011;4034;48.004;10.902;2023-01-19T06:23:25;12.63;;;11.30;;
7977;SDS011;4034;48.004;10.902;2023-01-19T06:25:51;14.57;;;11.20;;
7977;SDS011;4034;48.004;10.902;2023-01-19T06:28:17;15.43;;;12.33;;
7977;SDS011;4034;48.004;10.902;2023-01-19T06:30:50;17.80;;;11.93;;
7977;SDS011;4034;48.004;10.902;2023-01-19T06:33:16;18.50;;;12.70;;
7977;SDS011;4034;48.004;10.902;2023-01-19T06:35:43;17.37;;;13.17;;
7977;SDS011;4034;48.004;10.902;2023-01-19T06:38:09;17.90;;;11.37;;
7977;SDS011;4034;48.004;10.902;2023-01-19T06:40:37;17.00;;;12.80;;
7977;SDS011;4034;48.004;10.902;2023-01-19T06:43:03;17.27;;;12.47;;
7977;SDS011;4034;48.004;10.902;2023-01-19T06:45:29;18.97;;;11.87;;
7977;SDS011;4034;48.004;10.902;2023-01-19T06:47:55;16.17;;;12.30;;
7977;SDS011;4034;48.004;10.902;2023-01-19T06:50:21;15.47;;;11.40;;
7977;SDS011;4034;48.004;10.902;2023-01-19T06:52:51;15.87;;;12.03;;
7977;SDS011;4034;48.004;10.902;2023-01-19T06:55:17;18.43;;;12.73;;
7977;SDS011;4034;48.004;10.902;2023-01-19T06:57:43;19.80;;;12.63;;
7977;SDS011;4034;48.004;10.902;2023-01-19T07:00:10;17.87;;;12.03;;
7977;SDS011;4034;48.004;10.902;2023-01-19T07:02:36;15.17;;;12.00;;
7977;SDS011;4034;48.004;10.902;2023-01-19T07:05:03;18.20;;;11.50;;
7977;SDS011;4034;48.004;10.902;2023-01-19T07:07:30;16.40;;;10.70;;
7977;SDS011;4034;48.004;10.902;2023-01-19T07:09:56;18.57;;;12.53;;
7977;SDS011;4034;48.004;10.902;2023-01-19T07:12:22;14.57;;;10.93;;
7977;SDS011;4034;48.004;10.902;2023-01-19T07:14:48;17.37;;;12.20;;
7977;SDS011;4034;48.004;10.902;2023-01-19T07:17:15;22.63;;;11.83;;
7977;SDS011;4034;48.004;10.902;2023-01-19T07:19:41;13.77;;;10.53;;
7977;SDS011;4034;48.004;10.902;2023-01-19T07:22:08;18.83;;;12.53;;
7977;SDS011;4034;48.004;10.902;2023-01-19T07:24:34;12.57;;;11.20;;
7977;SDS011;4034;48.004;10.902;2023-01-19T07:27:01;12.07;;;9.73;;
7977;SDS011;4034;48.004;10.902;2023-01-19T07:29:28;12.47;;;8.63;;
7977;SDS011;4034;48.004;10.902;2023-01-19T07:31:54;14.83;;;11.20;;
7977;SDS011;4034;48.004;10.902;2023-01-19T07:34:20;14.93;;;10.37;;
7977;SDS011;4034;48.004;10.902;2023-01-19T07:36:47;19.90;;;10.80;;
7977;SDS011;4034;48.004;10.902;2023-01-19T07:39:13;15.63;;;11.90;;
7977;SDS011;4034;48.004;10.902;2023-01-19T07:41:39;18.27;;;13.17;;
7977;SDS011;4034;48.004;10.902;2023-01-19T07:44:05;15.07;;;11.43;;
7977;SDS011;4034;48.004;10.902;2023-01-19T07:46:32;17.17;;;13.80;;
7977;SDS011;4034;48.004;10.902;2023-01-19T07:48:58;16.27;;;11.10;;
7977;SDS011;4034;48.004;10.902;2023-01-19T07:51:24;8.17;;;7.37;;
7977;SDS011;4034;48.004;10.902;2023-01-19T07:53:51;17.60;;;13.67;;
7977;SDS011;4034;48.004;10.902;2023-01-19T07:56:17;13.93;;;11.90;;
7977;SDS011;4034;48.004;10.902;2023-01-19T07:58:44;13.63;;;7.33;;
7977;SDS011;4034;48.004;10.902;2023-01-19T08:01:11;14.13;;;11.47;;
7977;SDS011;4034;48.004;10.902;2023-01-19T08:03:37;14.23;;;11.27;;
7977;SDS011;4034;48.004;10.902;2023-01-19T08:06:03;14.93;;;12.00;;
7977;SDS011;4034;48.004;10.902;2023-01-19T08:08:30;15.67;;;11.10;;
7977;SDS011;4034;48.004;10.902;2023-01-19T08:10:56;16.17;;;11.60;;
7977;SDS011;4034;48.004;10.902;2023-01-19T08:13:23;20.87;;;14.30;;
7977;SDS011;4034;48.004;10.902;2023-01-19T08:15:49;11.40;;;9.13;;
7977;SDS011;4034;48.004;10.902;2023-01-19T08:18:16;14.50;;;11.00;;
7977;SDS011;4034;48.004;10.902;2023-01-19T08:20:42;14.37;;;11.00;;
7977;SDS011;4034;48.004;10.902;2023-01-19T08:23:08;14.67;;;12.40;;
7977;SDS011;4034;48.004;10.902;2023-01-19T08:25:41;18.33;;;13.00;;
7977;SDS011;4034;48.004;10.902;2023-01-19T08:28:08;15.87;;;11.27;;
7977;SDS011;4034;48.004;10.902;2023-01-19T08:30:35;16.93;;;11.97;;
7977;SDS011;4034;48.004;10.902;2023-01-19T08:33:02;13.70;;;10.90;;
7977;SDS011;4034;48.004;10.902;2023-01-19T08:35:41;14.97;;;11.13;;
7977;SDS011;4034;48.004;10.902;2023-01-19T08:38:07;11.43;;;10.17;;
7977;SDS011;4034;48.004;10.902;2023-01-19T08:40:35;10.97;;;9.20;;
7977;SDS011;4034;48.004;10.902;2023-01-19T08:43:02;14.27;;;11.23;;
7977;SDS011;4034;48.004;10.902;2023-01-19T08:45:29;15.27;;;11.70;;
7977;SDS011;4034;48.004;10.902;2023-01-19T08:47:56;8.53;;;7.70;;
7977;SDS011;4034;48.004;10.902;2023-01-19T08:50:25;11.33;;;8.13;;
7977;SDS011;4034;48.004;10.902;2023-01-19T08:52:54;12.47;;;9.60;;
7977;SDS011;4034;48.004;10.902;2023-01-19T08:55:20;13.17;;;10.10;;
7977;SDS011;4034;48.004;10.902;2023-01-19T08:57:49;10.37;;;8.90;;
7977;SDS011;4034;48.004;10.902;2023-01-19T09:00:16;10.13;;;8.83;;
7977;SDS011;4034;48.004;10.902;2023-01-19T09:02:42;10.40;;;7.30;;
7977;SDS011;4034;48.004;10.902;2023-01-19T09:05:08;10.20;;;8.20;;
7977;SDS011;4034;48.004;10.902;2023-01-19T09:07:34;8.13;;;7.33;;
7977;SDS011;4034;48.004;10.902;2023-01-19T09:10:01;8.07;;;6.30;;
7977;SDS011;4034;48.004;10.902;2023-01-19T09:12:27;9.33;;;7.90;;
7977;SDS011;4034;48.004;10.902;2023-01-19T09:14:53;11.90;;;7.97;;
7977;SDS011;4034;48.004;10.902;2023-01-19T09:17:19;8.90;;;6.97;;
7977;SDS011;4034;48.004;10.902;2023-01-19T09:19:45;7.73;;;6.93;;
7977;SDS011;4034;48.004;10.902;2023-01-19T09:22:11;4.97;;;4.47;;
7977;SDS011;4034;48.004;10.902;2023-01-19T09:24:37;6.67;;;5.97;;
7977;SDS011;4034;48.004;10.902;2023-01-19T09:27:03;7.80;;;6.97;;
7977;SDS011;4034;48.004;10.902;2023-01-19T09:29:29;6.27;;;5.20;;
7977;SDS011;4034;48.004;10.902;2023-01-19T09:31:55;8.67;;;6.73;;
7977;SDS011;4034;48.004;10.902;2023-01-19T09:34:21;7.27;;;6.57;;
7977;SDS011;4034;48.004;10.902;2023-01-19T09:36:49;7.50;;;6.80;;
7977;SDS011;4034;48.004;10.902;2023-01-19T09:39:15;9.07;;;6.10;;
7977;SDS011;4034;48.004;10.902;2023-01-19T09:41:43;6.87;;;6.17;;
7977;SDS011;4034;48.004;10.902;2023-01-19T09:44:13;12.40;;;7.90;;
7977;SDS011;4034;48.004;10.902;2023-01-19T09:46:41;8.07;;;7.03;;
7977;SDS011;4034;48.004;10.902;2023-01-19T09:49:12;8.27;;;6.73;;
7977;SDS011;4034;48.004;10.902;2023-01-19T09:51:39;6.30;;;5.60;;
7977;SDS011;4034;48.004;10.902;2023-01-19T09:56:38;7.20;;;6.37;;
7977;SDS011;4034;48.004;10.902;2023-01-19T09:59:18;8.50;;;7.30;;
7977;SDS011;4034;48.004;10.902;2023-01-19T10:12:07;7.17;;;6.57;;
7977;SDS011;4034;48.004;10.902;2023-01-19T10:14:41;6.17;;;5.67;;
7977;SDS011;4034;48.004;10.902;2023-01-19T10:17:21;6.70;;;5.70;;
7977;SDS011;4034;48.004;10.902;2023-01-19T10:19:52;5.90;;;4.97;;
7977;SDS011;4034;48.004;10.902;2023-01-19T10:22:24;7.43;;;3.53;;
7977;SDS011;4034;48.004;10.902;2023-01-19T10:24:51;8.73;;;5.53;;
7977;SDS011;4034;48.004;10.902;2023-01-19T10:27:19;5.53;;;3.90;;
7977;SDS011;4034;48.004;10.902;2023-01-19T10:29:47;4.00;;;3.80;;
7977;SDS011;4034;48.004;10.902;2023-01-19T10:32:18;5.30;;;3.63;;
7977;SDS011;4034;48.004;10.902;2023-01-19T10:34:45;5.60;;;3.80;;
7977;SDS011;4034;48.004;10.902;2023-01-19T10:39:56;5.80;;;5.07;;
7977;SDS011;4034;48.004;10.902;2023-01-19T10:42:25;3.80;;;3.33;;
7977;SDS011;4034;48.004;10.902;2023-01-19T10:44:52;5.30;;;4.70;;
7977;SDS011;4034;48.004;10.902;2023-01-19T10:47:19;5.80;;;4.63;;
7977;SDS011;4034;48.004;10.902;2023-01-19T10:49:46;7.20;;;5.10;;
7977;SDS011;4034;48.004;10.902;2023-01-19T10:52:22;3.97;;;3.67;;
7977;SDS011;4034;48.004;10.902;2023-01-19T10:54:49;4.57;;;3.67;;
7977;SDS011;4034;48.004;10.902;2023-01-19T10:57:24;5.57;;;3.83;;
7977;SDS011;4034;48.004;10.902;2023-01-19T10:59:51;3.83;;;3.53;;
7977;SDS011;4034;48.004;10.902;2023-01-19T11:02:21;5.03;;;3.70;;
7977;SDS011;4034;48.004;10.902;2023-01-19T11:04:50;3.20;;;2.93;;
7977;SDS011;4034;48.004;10.902;2023-01-19T11:07:26;5.03;;;4.53;;
7977;SDS011;4034;48.004;10.902;2023-01-19T11:10:18;3.10;;;3.00;;
7977;SDS011;4034;48.004;10.902;2023-01-19T11:15:27;5.93;;;4.40;;
7977;SDS011;4034;48.004;10.902;2023-01-19T11:17:54;4.37;;;4.07;;
7977;SDS011;4034;48.004;10.902;2023-01-19T11:20:21;4.07;;;3.73;;
7977;SDS011;4034;48.004;10.902;2023-01-19T11:22:48;5.70;;;4.27;;
7977;SDS011;4034;48.004;10.902;2023-01-19T11:25:29;4.07;;;3.77;;
7977;SDS011;4034;48.004;10.902;2023-01-19T11:27:56;3.27;;;3.07;;
7977;SDS011;4034;48.004;10.902;2023-01-19T11:30:23;9.40;;;4.43;;
7977;SDS011;4034;48.004;10.902;2023-01-19T11:32:50;3.43;;;3.23;;
7977;SDS011;4034;48.004;10.902;2023-01-19T11:35:36;4.93;;;2.67;;
7977;SDS011;4034;48.004;10.902;2023-01-19T11:40:38;2.60;;;2.50;;
7977;SDS011;4034;48.004;10.902;2023-01-19T11:43:04;3.40;;;3.20;;
7977;SDS011;4034;48.004;10.902;2023-01-19T11:45:31;9.17;;;3.57;;
7977;SDS011;4034;48.004;10.902;2023-01-19T11:47:57;3.07;;;2.90;;
7977;SDS011;4034;48.004;10.902;2023-01-19T11:50:30;5.83;;;4.10;;
7977;SDS011;4034;48.004;10.902;2023-01-19T11:53:09;5.10;;;3.77;;
7977;SDS011;4034;48.004;10.902;2023-01-19T11:55:45;3.87;;;3.57;;
7977;SDS011;4034;48.004;10.902;2023-01-19T11:58:16;4.40;;;4.00;;
7977;SDS011;4034;48.004;10.902;2023-01-19T12:00:43;3.77;;;3.50;;
7977;SDS011;4034;48.004;10.902;2023-01-19T12:05:50;4.20;;;4.00;;
7977;SDS011;4034;48.004;10.902;2023-01-19T12:11:25;3.03;;;2.83;;
7977;SDS011;4034;48.004;10.902;2023-01-19T12:13:54;3.37;;;3.10;;
7977;SDS011;4034;48.004;10.902;2023-01-19T12:16:20;3.27;;;3.07;;
7977;SDS011;4034;48.004;10.902;2023-01-19T12:18:48;3.00;;;2.80;;
7977;SDS011;4034;48.004;10.902;2023-01-19T12:21:17;3.23;;;2.87;;
7977;SDS011;4034;48.004;10.902;2023-01-19T12:23:47;2.93;;;2.73;;
7977;SDS011;4034;48.004;10.902;2023-01-19T12:28:46;3.20;;;3.00;;
7977;SDS011;4034;48.004;10.902;2023-01-19T12:31:13;3.97;;;3.67;;
7977;SDS011;4034;48.004;10.902;2023-01-19T12:33:40;4.23;;;3.90;;
7977;SDS011;4034;48.004;10.902;2023-01-19T12:36:10;2.93;;;2.73;;
7977;SDS011;4034;48.004;10.902;2023-01-19T12:41:43;2.33;;;2.23;;
7977;SDS011;4034;48.004;10.902;2023-01-19T12:49:14;2.03;;;1.93;;
7977;SDS011;4034;48.004;10.902;2023-01-19T12:51:42;2.57;;;2.43;;
7977;SDS011;4034;48.004;10.902;2023-01-19T12:54:15;3.40;;;3.20;;
7977;SDS011;4034;48.004;10.902;2023-01-19T12:56:43;4.20;;;3.80;;
7977;SDS011;4034;48.004;10.902;2023-01-19T12:59:20;3.27;;;3.07;;
7977;SDS011;4034;48.004;10.902;2023-01-19T13:04:32;3.90;;;3.60;;
7977;SDS011;4034;48.004;10.902;2023-01-19T13:07:05;5.10;;;4.43;;
7977;SDS011;4034;48.004;10.902;2023-01-19T13:09:34;4.67;;;4.27;;
7977;SDS011;4034;48.004;10.902;2023-01-19T13:12:18;7.47;;;5.97;;
7977;SDS011;4034;48.004;10.902;2023-01-19T13:14:45;4.03;;;3.73;;
7977;SDS011;4034;48.004;10.902;2023-01-19T13:17:16;5.67;;;5.17;;
7977;SDS011;4034;48.004;10.902;2023-01-19T13:19:51;4.40;;;4.00;;
7977;SDS011;4034;48.004;10.902;2023-01-19T13:25:45;6.40;;;4.00;;
7977;SDS011;4034;48.004;10.902;2023-01-19T13:27:52;5.00;;;4.60;;
7977;SDS011;4034;48.004;10.902;2023-01-19T13:30:18;4.87;;;4.27;;
7977;SDS011;4034;48.004;10.902;2023-01-19T13:32:46;5.33;;;3.97;;
7977;SDS011;4034;48.004;10.902;2023-01-19T13:35:13;3.67;;;3.37;;
7977;SDS011;4034;48.004;10.902;2023-01-19T13:37:41;5.37;;;3.63;;
7977;SDS011;4034;48.004;10.902;2023-01-19T13:40:19;3.73;;;3.47;;
7977;SDS011;4034;48.004;10.902;2023-01-19T13:42:46;4.80;;;4.40;;
7977;SDS011;4034;48.004;10.902;2023-01-19T13:45:29;5.07;;;4.60;;
7977;SDS011;4034;48.004;10.902;2023-01-19T13:47:58;5.20;;;3.50;;
7977;SDS011;4034;48.004;10.902;2023-01-19T13:50:26;4.07;;;3.77;;
7977;SDS011;4034;48.004;10.902;2023-01-19T13:52:52;4.57;;;3.53;;
7977;SDS011;4034;48.004;10.902;2023-01-19T13:55:19;4.67;;;4.27;;
7977;SDS011;4034;48.004;10.902;2023-01-19T13:57:46;3.50;;;3.30;;
7977;SDS011;4034;48.004;10.902;2023-01-19T14:05:31;5.17;;;4.57;;
7977;SDS011;4034;48.004;10.902;2023-01-19T14:11:18;4.20;;;3.87;;
7977;SDS011;4034;48.004;10.902;2023-01-19T14:13:32;4.17;;;3.87;;
7977;SDS011;4034;48.004;10.902;2023-01-19T14:16:00;5.20;;;4.70;;
7977;SDS011;4034;48.004;10.902;2023-01-19T14:18:30;3.17;;;2.97;;
7977;SDS011;4034;48.004;10.902;2023-01-19T14:20:57;4.30;;;3.90;;
7977;SDS011;4034;48.004;10.902;2023-01-19T14:26:00;4.30;;;3.90;;
7977;SDS011;4034;48.004;10.902;2023-01-19T14:30:59;3.90;;;3.60;;
7977;SDS011;4034;48.004;10.902;2023-01-19T14:33:35;4.37;;;4.00;;
7977;SDS011;4034;48.004;10.902;2023-01-19T14:36:08;5.30;;;4.90;;
7977;SDS011;4034;48.004;10.902;2023-01-19T14:38:34;6.47;;;5.87;;
7977;SDS011;4034;48.004;10.902;2023-01-19T14:41:00;9.67;;;8.40;;
7977;SDS011;4034;48.004;10.902;2023-01-19T14:43:26;3.90;;;3.60;;
7977;SDS011;4034;48.004;10.902;2023-01-19T14:45:53;4.60;;;4.20;;
7977;SDS011;4034;48.004;10.902;2023-01-19T14:48:21;6.93;;;4.90;;
7977;SDS011;4034;48.004;10.902;2023-01-19T14:50:47;4.30;;;3.97;;
7977;SDS011;4034;48.004;10.902;2023-01-19T14:53:18;4.70;;;4.23;;
7977;SDS011;4034;48.004;10.902;2023-01-19T14:55:49;5.60;;;4.93;;
7977;SDS011;4034;48.004;10.902;2023-01-19T14:58:17;5.93;;;5.33;;
7977;SDS011;4034;48.004;10.902;2023-01-19T15:00:44;4.10;;;3.70;;
7977;SDS011;4034;48.004;10.902;2023-01-19T15:03:10;3.53;;;3.33;;
7977;SDS011;4034;48.004;10.902;2023-01-19T15:05:37;3.50;;;3.30;;
7977;SDS011;4034;48.004;10.902;2023-01-19T15:08:04;4.77;;;4.00;;
7977;SDS011;4034;48.004;10.902;2023-01-19T15:10:30;4.33;;;3.60;;
7977;SDS011;4034;48.004;10.902;2023-01-19T15:12:56;4.73;;;4.33;;
7977;SDS011;4034;48.004;10.902;2023-01-19T15:15:23;4.90;;;4.13;;
7977;SDS011;4034;48.004;10.902;2023-01-19T15:17:51;7.17;;;3.10;;
7977;SDS011;4034;48.004;10.902;2023-01-19T15:20:18;4.37;;;3.90;;
7977;SDS011;4034;48.004;10.902;2023-01-19T15:22:45;3.97;;;3.60;;
7977;SDS011;4034;48.004;10.902;2023-01-19T15:25:11;3.37;;;3.10;;
7977;SDS011;4034;48.004;10.902;2023-01-19T15:27:38;3.87;;;3.57;;
7977;SDS011;4034;48.004;10.902;2023-01-19T15:30:10;4.60;;;4.10;;
7977;SDS011;4034;48.004;10.902;2023-01-19T15:32:37;4.17;;;3.87;;
7977;SDS011;4034;48.004;10.902;2023-01-19T15:35:14;2.63;;;2.43;;
7977;SDS011;4034;48.004;10.902;2023-01-19T15:37:41;3.83;;;3.53;;
7977;SDS011;4034;48.004;10.902;2023-01-19T15:40:07;4.80;;;4.37;;
7977;SDS011;4034;48.004;10.902;2023-01-19T15:42:33;2.53;;;2.30;;
7977;SDS011;4034;48.004;10.902;2023-01-19T15:44:59;4.00;;;3.70;;
7977;SDS011;4034;48.004;10.902;2023-01-19T15:47:25;3.53;;;3.20;;
7977;SDS011;4034;48.004;10.902;2023-01-19T15:49:51;4.27;;;3.97;;
7977;SDS011;4034;48.004;10.902;2023-01-19T15:52:17;3.87;;;3.57;;
7977;SDS011;4034;48.004;10.902;2023-01-19T15:54:43;5.70;;;3.73;;
7977;SDS011;4034;48.004;10.902;2023-01-19T15:57:09;4.37;;;3.97;;
7977;SDS011;4034;48.004;10.902;2023-01-19T15:59:35;4.77;;;4.37;;
7977;SDS011;4034;48.004;10.902;2023-01-19T16:02:01;6.53;;;3.53;;
7977;SDS011;4034;48.004;10.902;2023-01-19T16:04:27;5.00;;;3.80;;
7977;SDS011;4034;48.004;10.902;2023-01-19T16:06:53;11.83;;;4.13;;